METAR Data
IDs: Format: Raw Decoded Include TAF

Data at: 0510 UTC 20 Oct 2018

PAIL 200453Z 26006KT 10SM BKN045 OVC060 06/M01 A2929 RMK AO2 SLP920 T00561006
PAIL 200353Z 27006KT 10SM BKN045 BKN055 OVC120 06/00 A2926 RMK AO2 SLP910 T00560000
PAIL 200253Z 29007KT 10SM BKN036 BKN055 OVC120 06/M01 A2924 RMK AO2 SLP902 T00611006 53026
PAIL 200153Z 28007KT 10SM SCT055 OVC120 06/00 A2921 RMK AO2 SLP893 T00610000
PAIL 200053Z 28010KT 10SM SCT055 OVC130 06/01 A2919 RMK AO2 SLP885 T00610006
PAIL 192353Z 28010G16KT 10SM SCT055 OVC120 06/01 A2916 RMK AO2 SLP876 T00610006 10072 20056 53015
PAIL 192253Z 30011G17KT 10SM SCT055 OVC120 07/01 A2913 RMK AO2 SLP867 T00670006
PAIL 192153Z 30014G20KT 10SM BKN120 07/01 A2912 RMK AO2 SLP863 T00670011
PAIL 192053Z 28010KT 10SM BKN120 06/01 A2912 RMK AO2 SLP861 T00610006 55013
PAIL 191953Z 30011KT 10SM BKN120 06/00 A2911 RMK AO2 PK WND 30027/1908 SLP860 T00610000
PAIL 191853Z 30010KT 10SM FEW030 BKN120 07/00 A2913 RMK AO2 SLP866 T00720000
PAIL 191753Z 32007KT 10SM SCT120 07/01 A2916 RMK AO2 SLP874 60000 T00670006 10083 20067 56038
PAIL 191653Z 30005KT 10SM FEW080 07/01 A2919 RMK AO2 SLP887 T00670011
PAIL 191553Z 32005KT 10SM OVC065 08/02 A2923 RMK AO2 SLP898 T00780017
PAIL 191453Z 35005KT 10SM OVC060 08/02 A2927 RMK AO2 SLP912 60000 T00780022 56050
PAIL 191353Z 35006KT 10SM BKN060 OVC075 08/03 A2932 RMK AO2 RAB25E38 SLP929 P0000 T00830028
PAIL 191253Z AUTO 01005KT 10SM OVC070 08/03 A2936 RMK AO2 RAB19E30 SLP945 P0000 T00780028 TSNO
PAIL 191153Z AUTO 36007KT 10SM FEW046 OVC055 07/04 A2941 RMK AO2 RAE50 SLP962 P0001 60002 7//// T00720039 10072 20050 58038 TSNO
PAIL 191053Z AUTO 36004KT 10SM -RA OVC042 07/04 A2946 RMK AO2 SLP978 P0001 T00670044 TSNO
PAIL 190953Z AUTO 35010KT 10SM -RA OVC048 07/03 A2950 RMK AO2 RAB52 SLP990 P0000 T00720033 TSNO
PAIL 190853Z AUTO 36008KT 10SM FEW070 OVC095 07/03 A2953 RMK AO2 SLP000 T00670033 401000044 56038 TSNO
PAIL 190753Z AUTO 35010KT 10SM SCT110 07/03 A2956 RMK AO2 SLP011 T00670033 TSNO
PAIL 190653Z AUTO 35008KT 10SM CLR 06/03 A2960 RMK AO2 SLP025 T00610028 TSNO
PAIL 190553Z AUTO 36006KT 10SM SCT050 SCT060 05/03 A2964 RMK AO2 SLP038 60000 T00500028 10094 20044 58024 TSNO
PAIL 190453Z 01005KT 10SM SCT047 BKN060 06/03 A2967 RMK AO2 SLP049 T00560033
PAIL 190353Z 09009G18KT 10SM SCT047 SCT060 08/05 A2969 RMK AO2 SLP057 T00830050
PAIL 190253Z 09010G18KT 10SM FEW038 SCT047 BKN060 08/05 A2971 RMK AO2 RAB0157E24 SLP063 P0000 60000 T00830050 58008
PAIL 190153Z 09013G21KT 10SM BKN038 09/05 A2972 RMK AO2 SLP067 T00890050
PAIL 190053Z 09013G20KT 10SM BKN038 BKN110 09/06 A2973 RMK AO2 RAB27E37 SLP070 P0000 T00940061
PAIL 182353Z 09011KT 10SM SCT038 BKN050 OVC095 09/06 A2974 RMK AO2 SLP071 60002 T00940061 10100 20083 58008
PAIL 182253Z 09011KT 10SM BKN034 BKN050 OVC090 09/07 A2975 RMK AO2 RAB05E35 SLP077 P0002 T00890067
PAIL 182153Z 08015G21KT 10SM BKN038 BKN060 OVC085 09/06 A2976 RMK AO2 SLP079 T00940061
PAIL 182053Z 08013G19KT 10SM SCT034 SCT042 BKN050 09/06 A2976 RMK AO2 SLP079 T00890056 51006
PAIL 181953Z 09011G19KT 10SM FEW034 BKN045 BKN055 09/06 A2975 RMK AO2 SLP077 T00890056
PAIL 181853Z 07013G19KT 10SM BKN035 09/06 A2976 RMK AO2 SLP078 T00940056
PAIL 181753Z 08011KT 10SM BKN044 09/06 A2974 RMK AO2 SLP072 6//// T00890056 10094 20078 51007